CYYRBGSF [SWR574]

Guest
Details From CYYR - Goose Bay
To BGSF - Kangerlussuaq
Flight Number SWR574
Tags Real Commercial Decoded
Created
Modified
Stats Distance 874 nm / 1,619 km
Max Altitude 3,317 ft / 1,011 m
Waypoints 3
Social Downloads 22
Likes 0
Share VATSIM

Download

Looking for another format? Having issues loading an existing format? Contact us
Advertisement - Login to hide

Notes

Decoded

Route

CYYR SUKAK BGSF

ID Type Via Altitude Latitude Longitude Leg Dist Tot Dist Heading (true) Name
O CYYR APT - 0 ft / 0 m 53.33389˚ -60.43639˚ - 0 nm - -
SUKAK FIX - 3,317 ft / 1,011 m 66.94250˚ -50.48917˚ 867 nm 867 nm 16° / 24° -
O BGSF APT - 0 ft / 0 m 67.00561˚ -50.74307˚ 7 nm 874 nm 303° / 302° -

Altitude Profile

Advertisement - Login to hide

Weather


0- 5 10 15 20 25 30 35+ Temperature / ° C

Clouds and Precipitation
Forecast for 2018-05-23 12:00 UTC. Updated 2 hours ago

Ground ~20,000 ft ~40,000 ft Winds

CYYR

Details ICAO CYYR (YYR)
Name Goose Bay
Region Canada
Timezone America/Goose_Bay (UTC-3.0)
Stats Elevation 160 ft / 49 m (AMSL)
Location 53.318820° -60.423890°
Runways 2
Magnetic Variation 20.869° W

METAR

CYYR 231321Z CCA 32011G16KT 15SM VCSH BKN043 M00/M08 A2999 RMK SC7 SLP160

Decode

TAF

TAF CYYR 231130Z 2312/2412 27005KT P6SM SCT040 TEMPO 2312/2315 BKN040 FM231500 32012KT P6SM BKN040 BECMG 2400/2402 32005KT RMK NXT FCST BY 231800Z

Decode

Departure Runways

ID Width Length Bearing (true) Bearing (mag) Surface Threshold Offset Overrun Length
08 209 ft / 64 m 11,055 ft / 3,369 m 54.70° 75.57° Asphalt 0 ft / 0 m 1,000 ft / 305 m
16 200 ft / 61 m 9,515 ft / 2,900 m 132.96° 153.83° Asphalt 0 ft / 0 m 0 ft / 0 m
26 209 ft / 64 m 11,055 ft / 3,369 m 234.73° 255.60° Asphalt 0 ft / 0 m 1,000 ft / 305 m
34 200 ft / 61 m 9,515 ft / 2,900 m 312.99° 333.86° Asphalt 0 ft / 0 m 500 ft / 152 m

BGSF

Details ICAO BGSF (SFJ)
Name Kangerlussuaq
Region Greenland
Timezone America/Godthab (UTC-2.0)
Stats Elevation 165 ft / 50 m (AMSL)
Location 67.011605° -50.714721°
Runways 2
Magnetic Variation 28.858° W

METAR

BGSF 231250Z AUTO 25014KT 9999NDV FEW110/// 06/M00 Q0995

Decode

TAF

TAF AMD BGSF 231206Z 2312/2418 08012KT 9999 FEW080 BECMG 2312/2314 28010KT BECMG 2316/2318 BKN040 TEMPO 2318/2324 6000 -SHRASN BKN020 TEMPO 2400/2418 3000 -SN BKN012

Decode

Destination Runways

ID Width Length Bearing (true) Bearing (mag) Surface Threshold Offset Overrun Length
09 197 ft / 60 m 9,169 ft / 2,795 m 61.57° 90.43° Asphalt 0 ft / 0 m 509 ft / 155 m
10 197 ft / 60 m 9,187 ft / 2,800 m 61.55° 90.41° Asphalt 0 ft / 0 m 0 ft / 0 m
27 197 ft / 60 m 9,169 ft / 2,795 m 241.63° 270.49° Asphalt 0 ft / 0 m 171 ft / 52 m
28 197 ft / 60 m 9,187 ft / 2,800 m 241.60° 270.46° Asphalt 0 ft / 0 m 0 ft / 0 m

Approach Navaids

Runway Type Ident Frequency Range Bearing (true) Bearing (mag) Slope Elevation
10 Localiser ISF 109.55 MHz 18 nm / 33 km 61.60° 90.46° - 165 ft / 50 m (AMSL)
10 DME ISF 109.55 MHz 18 nm / 33 km - - - 172 ft / 52 m (AMSL)

Popular Alternatives